Etusivu
METAR-TAF:

METAR-TAF

Lentoasemat :

Springbok, Etelä-Afrikka

Leveyspiiri: 29-40S, Pituuspiiri: 17-53E, korkeus merenpinnasta: 1006 m

Tämänhetkinen sää

Tämä raportti tehtiin 5 tuntia ja 16 minuuttia sitten, kello 07.33 UTC
Tuuli 12 kn lounaasta
Lämpötila 7°C
Kosteus 76%
Ilmanpaine 1016 hPa

METAR: FASB 010733Z AUTO 23012KT //// // ////// 07/03 Q1016

Aika: 14:49 (12:49 UTC)


TAF: puuttuu

Säähavainnot ja -ennusteet yli 4000 lentoasemalta (METAR- ja TAF-raportit).

Käytössä olevat sääasemat on merkitty karttaan keltaisilla ja punaisilla pisteillä.

Aseta hiiri pisteen päälle nähdäksesi sääaseman nimen.

Klikkaa sitten nähdäksesi säähavainnot ja -ennusteet.

Kartan vaihtaminen: klikkaa mustalla rastilla varustettuja vihreitä pisteitä, niin voit zoomata sisään; viivalla varustettua vihreää pistettä, niin voit zoomata ulos tai vihreitä nuolia, niin pääset viereisille kartoille.


METAR-TAF: